PWSweather.com
Personal Weather Stations
Station Observations
EDGELEY
Edgeley, Nd, Edgeley, ND 58433

Edgeley, NdEdgeley, ND 58433

Lat: 46.3599246, Lon: -98.7144392

Elevation: 1575

Station Type: Davis/Vantage Pro

www.edgeleyweather.com

High Low Average
Temperature 77.2°F25.1°C 64.4°F18.0°C 68.6°F20.3°C
Dew Point 71.7°F22.1°C 59.5°F15.3°C 65.1°F18.4°C
Winds 20.0 mph 32.2 kmh Calm Calm 5.0 mph N8.0 kmh N
Wind Gusts 26.0 mph41.8 kmh -- 10.0 mph16.1 kmh
Humidity 99% 68% 89%
Pressure 29.79 in1008.8 mb 29.62 in1003.0 mb -
Precipitation 0.00 in0.0 mm - -
Hour Temp Dew Point Humidity Winds Wind Gusts Pressure Precip Precip Rate Daily Precip Total
12:00 AM 65.7°F18.7°C 64.8°F18.2°C 97% 1.0 mph N1.6 kmh N 2.0 mph3.2 kmh 29.77 in1008.1 mb 0.00 in0.0 mm 0.00 in0.0 mm 0.00 in0.0 mm
12:05 AM 65.6°F18.7°C 64.7°F18.2°C 97% 2.0 mph N3.2 kmh N 6.0 mph9.7 kmh 29.77 in1008.1 mb 0.00 in0.0 mm 0.00 in0.0 mm 0.00 in0.0 mm
12:10 AM 65.6°F18.7°C 64.7°F18.2°C 97% 5.0 mph N8.0 kmh N 8.0 mph12.9 kmh 29.79 in1008.8 mb 0.00 in0.0 mm 0.00 in0.0 mm 0.00 in0.0 mm
12:15 AM 65.6°F18.7°C 64.7°F18.2°C 97% 5.0 mph N8.0 kmh N 6.0 mph9.7 kmh 29.77 in1008.1 mb 0.00 in0.0 mm 0.00 in0.0 mm 0.00 in0.0 mm
12:20 AM 65.7°F18.7°C 64.8°F18.2°C 97% 3.0 mph N4.8 kmh N 6.0 mph9.7 kmh 29.76 in1007.8 mb 0.00 in0.0 mm 0.00 in0.0 mm 0.00 in0.0 mm
12:25 AM 65.7°F18.7°C 64.8°F18.2°C 97% 4.0 mph N6.4 kmh N 6.0 mph9.7 kmh 29.77 in1008.1 mb 0.00 in0.0 mm 0.00 in0.0 mm 0.00 in0.0 mm
12:30 AM 65.7°F18.7°C 64.8°F18.2°C 97% 2.0 mph N3.2 kmh N 5.0 mph8.0 kmh 29.77 in1008.1 mb 0.00 in0.0 mm 0.00 in0.0 mm 0.00 in0.0 mm
12:35 AM 65.6°F18.7°C 64.7°F18.2°C 97% 5.0 mph N8.0 kmh N 7.0 mph11.3 kmh 29.79 in1008.8 mb 0.00 in0.0 mm 0.00 in0.0 mm 0.00 in0.0 mm
12:40 AM 65.6°F18.7°C 64.7°F18.2°C 97% 3.0 mph N4.8 kmh N 7.0 mph11.3 kmh 29.79 in1008.8 mb 0.00 in0.0 mm 0.00 in0.0 mm 0.00 in0.0 mm
12:45 AM 65.5°F18.6°C 64.6°F18.1°C 97% 3.0 mph N4.8 kmh N 3.0 mph4.8 kmh 29.79 in1008.8 mb 0.00 in0.0 mm 0.00 in0.0 mm 0.00 in0.0 mm
12:50 AM 65.4°F18.6°C 64.5°F18.1°C 97% 3.0 mph N4.8 kmh N 5.0 mph8.0 kmh 29.78 in1008.5 mb 0.01 in0.3 mm 0.12 in3.0 mm 0.01 in0.3 mm
12:55 AM 65.4°F18.6°C 64.5°F18.1°C 97% 3.0 mph N4.8 kmh N 6.0 mph9.7 kmh 29.77 in1008.1 mb 0.01 in0.3 mm 0.00 in0.0 mm 0.01 in0.3 mm
01:00 AM 65.4°F18.6°C 64.5°F18.1°C 97% 2.0 mph N3.2 kmh N 3.0 mph4.8 kmh 29.77 in1008.1 mb 0.01 in0.3 mm 0.00 in0.0 mm 0.01 in0.3 mm
01:05 AM 65.4°F18.6°C 64.5°F18.1°C 97% 1.0 mph N1.6 kmh N 5.0 mph8.0 kmh 29.77 in1008.1 mb 0.01 in0.3 mm 0.00 in0.0 mm 0.01 in0.3 mm
01:10 AM 65.3°F18.5°C 64.4°F18.0°C 97% 2.0 mph N3.2 kmh N 5.0 mph8.0 kmh 29.76 in1007.8 mb 0.01 in0.3 mm 0.00 in0.0 mm 0.01 in0.3 mm
01:15 AM 65.3°F18.5°C 64.4°F18.0°C 97% 3.0 mph N4.8 kmh N 5.0 mph8.0 kmh 29.75 in1007.5 mb 0.01 in0.3 mm 0.00 in0.0 mm 0.01 in0.3 mm
01:20 AM 65.3°F18.5°C 64.4°F18.0°C 97% 4.0 mph N6.4 kmh N 6.0 mph9.7 kmh 29.76 in1007.8 mb 0.01 in0.3 mm 0.00 in0.0 mm 0.01 in0.3 mm
01:25 AM 65.3°F18.5°C 64.7°F18.2°C 98% 6.0 mph N9.7 kmh N 8.0 mph12.9 kmh 29.74 in1007.1 mb 0.01 in0.3 mm 0.00 in0.0 mm 0.01 in0.3 mm
01:30 AM 65.4°F18.6°C 64.8°F18.2°C 98% 3.0 mph N4.8 kmh N 6.0 mph9.7 kmh 29.74 in1007.1 mb 0.01 in0.3 mm 0.00 in0.0 mm 0.01 in0.3 mm
01:35 AM 65.4°F18.6°C 64.5°F18.1°C 97% 3.0 mph N4.8 kmh N 10.0 mph16.1 kmh 29.74 in1007.1 mb 0.01 in0.3 mm 0.00 in0.0 mm 0.01 in0.3 mm
01:40 AM 65.4°F18.6°C 64.5°F18.1°C 97% 4.0 mph N6.4 kmh N 12.0 mph19.3 kmh 29.74 in1007.1 mb 0.01 in0.3 mm 0.00 in0.0 mm 0.01 in0.3 mm
01:45 AM 65.4°F18.6°C 64.5°F18.1°C 97% 4.0 mph N6.4 kmh N 8.0 mph12.9 kmh 29.74 in1007.1 mb 0.01 in0.3 mm 0.00 in0.0 mm 0.01 in0.3 mm
01:50 AM 65.3°F18.5°C 64.4°F18.0°C 97% 5.0 mph N8.0 kmh N 10.0 mph16.1 kmh 29.73 in1006.8 mb 0.01 in0.3 mm 0.00 in0.0 mm 0.01 in0.3 mm
01:55 AM 65.2°F18.4°C 64.3°F17.9°C 97% 4.0 mph N6.4 kmh N 10.0 mph16.1 kmh 29.73 in1006.8 mb 0.01 in0.3 mm 0.00 in0.0 mm 0.01 in0.3 mm
02:00 AM 65.2°F18.4°C 64.3°F17.9°C 97% 4.0 mph N6.4 kmh N 5.0 mph8.0 kmh 29.72 in1006.4 mb 0.00 in0.0 mm 0.00 in0.0 mm 0.01 in0.3 mm
02:05 AM 65.2°F18.4°C 64.3°F17.9°C 97% 3.0 mph N4.8 kmh N 10.0 mph16.1 kmh 29.73 in1006.8 mb 0.00 in0.0 mm 0.00 in0.0 mm 0.01 in0.3 mm
02:10 AM 65.2°F18.4°C 64.3°F17.9°C 97% 11.0 mph N17.7 kmh N 13.0 mph20.9 kmh 29.73 in1006.8 mb 0.00 in0.0 mm 0.00 in0.0 mm 0.01 in0.3 mm
02:15 AM 65.3°F18.5°C 64.4°F18.0°C 97% 5.0 mph N8.0 kmh N 13.0 mph20.9 kmh 29.73 in1006.8 mb 0.00 in0.0 mm 0.00 in0.0 mm 0.01 in0.3 mm
02:20 AM 65.3°F18.5°C 64.4°F18.0°C 97% 6.0 mph N9.7 kmh N 14.0 mph22.5 kmh 29.72 in1006.4 mb 0.00 in0.0 mm 0.00 in0.0 mm 0.01 in0.3 mm
02:25 AM 65.3°F18.5°C 64.4°F18.0°C 97% 5.0 mph N8.0 kmh N 14.0 mph22.5 kmh 29.72 in1006.4 mb 0.00 in0.0 mm 0.00 in0.0 mm 0.01 in0.3 mm
02:30 AM 65.3°F18.5°C 64.4°F18.0°C 97% 4.0 mph N6.4 kmh N 4.0 mph6.4 kmh 29.71 in1006.1 mb 0.00 in0.0 mm 0.00 in0.0 mm 0.01 in0.3 mm
02:35 AM 65.3°F18.5°C 64.4°F18.0°C 97% 6.0 mph N9.7 kmh N 6.0 mph9.7 kmh 29.70 in1005.8 mb 0.00 in0.0 mm 0.00 in0.0 mm 0.01 in0.3 mm
02:40 AM 65.3°F18.5°C 64.4°F18.0°C 97% 9.0 mph N14.5 kmh N 9.0 mph14.5 kmh 29.69 in1005.4 mb 0.00 in0.0 mm 0.00 in0.0 mm 0.01 in0.3 mm
02:45 AM 65.3°F18.5°C 64.4°F18.0°C 97% 3.0 mph N4.8 kmh N 5.0 mph8.0 kmh 29.69 in1005.4 mb 0.00 in0.0 mm 0.00 in0.0 mm 0.01 in0.3 mm
02:50 AM 65.3°F18.5°C 64.4°F18.0°C 97% 4.0 mph N6.4 kmh N 9.0 mph14.5 kmh 29.69 in1005.4 mb 0.00 in0.0 mm 0.00 in0.0 mm 0.01 in0.3 mm
02:55 AM 65.3°F18.5°C 64.4°F18.0°C 97% 5.0 mph N8.0 kmh N 9.0 mph14.5 kmh 29.69 in1005.4 mb 0.00 in0.0 mm 0.00 in0.0 mm 0.01 in0.3 mm
03:00 AM 65.3°F18.5°C 64.4°F18.0°C 97% 3.0 mph N4.8 kmh N 4.0 mph6.4 kmh 29.69 in1005.4 mb 0.00 in0.0 mm 0.00 in0.0 mm 0.01 in0.3 mm
03:05 AM 65.3°F18.5°C 64.4°F18.0°C 97% 5.0 mph N8.0 kmh N 11.0 mph17.7 kmh 29.69 in1005.4 mb 0.00 in0.0 mm 0.00 in0.0 mm 0.01 in0.3 mm
03:10 AM 65.3°F18.5°C 64.4°F18.0°C 97% 8.0 mph N12.9 kmh N 11.0 mph17.7 kmh 29.70 in1005.8 mb 0.00 in0.0 mm 0.00 in0.0 mm 0.01 in0.3 mm
03:15 AM 65.4°F18.6°C 64.5°F18.1°C 97% 14.0 mph N22.5 kmh N 14.0 mph22.5 kmh 29.70 in1005.8 mb 0.00 in0.0 mm 0.00 in0.0 mm 0.01 in0.3 mm
03:20 AM 65.4°F18.6°C 64.5°F18.1°C 97% 9.0 mph N14.5 kmh N 16.0 mph25.7 kmh 29.70 in1005.8 mb 0.00 in0.0 mm 0.00 in0.0 mm 0.01 in0.3 mm
03:25 AM 65.5°F18.6°C 64.6°F18.1°C 97% 7.0 mph N11.3 kmh N 16.0 mph25.7 kmh 29.70 in1005.8 mb 0.00 in0.0 mm 0.00 in0.0 mm 0.01 in0.3 mm
03:30 AM 65.5°F18.6°C 64.6°F18.1°C 97% 11.0 mph N17.7 kmh N 14.0 mph22.5 kmh 29.70 in1005.8 mb 0.00 in0.0 mm 0.00 in0.0 mm 0.01 in0.3 mm
03:35 AM 65.6°F18.7°C 64.7°F18.2°C 97% 8.0 mph N12.9 kmh N 17.0 mph27.4 kmh 29.70 in1005.8 mb 0.00 in0.0 mm 0.00 in0.0 mm 0.01 in0.3 mm
03:40 AM 65.6°F18.7°C 64.7°F18.2°C 97% 9.0 mph N14.5 kmh N 17.0 mph27.4 kmh 29.69 in1005.4 mb 0.01 in0.3 mm 0.12 in3.0 mm 0.02 in0.5 mm
03:45 AM 65.6°F18.7°C 64.7°F18.2°C 97% 15.0 mph N24.1 kmh N 15.0 mph24.1 kmh 29.69 in1005.4 mb 0.02 in0.5 mm 0.12 in3.0 mm 0.03 in0.8 mm
03:50 AM 65.5°F18.6°C 64.6°F18.1°C 97% 7.0 mph N11.3 kmh N 17.0 mph27.4 kmh 29.68 in1005.1 mb 0.02 in0.5 mm 0.00 in0.0 mm 0.03 in0.8 mm
03:55 AM 65.5°F18.6°C 64.6°F18.1°C 97% 6.0 mph N9.7 kmh N 17.0 mph27.4 kmh 29.68 in1005.1 mb 0.03 in0.8 mm 0.12 in3.0 mm 0.04 in1.0 mm
04:00 AM 65.4°F18.6°C 64.2°F17.9°C 96% 4.0 mph N6.4 kmh N 6.0 mph9.7 kmh 29.68 in1005.1 mb 0.03 in0.8 mm 0.00 in0.0 mm 0.04 in1.0 mm
04:05 AM 65.5°F18.6°C 64.3°F17.9°C 96% 6.0 mph N9.7 kmh N 13.0 mph20.9 kmh 29.68 in1005.1 mb 0.03 in0.8 mm 0.00 in0.0 mm 0.04 in1.0 mm
04:10 AM 65.5°F18.6°C 64.3°F17.9°C 96% 7.0 mph N11.3 kmh N 13.0 mph20.9 kmh 29.68 in1005.1 mb 0.03 in0.8 mm 0.00 in0.0 mm 0.04 in1.0 mm
04:15 AM 65.5°F18.6°C 64.3°F17.9°C 96% 7.0 mph N11.3 kmh N 9.0 mph14.5 kmh 29.69 in1005.4 mb 0.03 in0.8 mm 0.00 in0.0 mm 0.04 in1.0 mm
04:20 AM 65.6°F18.7°C 64.4°F18.0°C 96% 4.0 mph N6.4 kmh N 12.0 mph19.3 kmh 29.69 in1005.4 mb 0.03 in0.8 mm 0.00 in0.0 mm 0.04 in1.0 mm
04:25 AM 65.6°F18.7°C 64.1°F17.8°C 95% 11.0 mph N17.7 kmh N 15.0 mph24.1 kmh 29.69 in1005.4 mb 0.03 in0.8 mm 0.00 in0.0 mm 0.04 in1.0 mm
04:30 AM 65.7°F18.7°C 64.2°F17.9°C 95% 3.0 mph N4.8 kmh N 9.0 mph14.5 kmh 29.70 in1005.8 mb 0.03 in0.8 mm 0.00 in0.0 mm 0.04 in1.0 mm
04:35 AM 65.8°F18.8°C 64.3°F17.9°C 95% 10.0 mph N16.1 kmh N 13.0 mph20.9 kmh 29.69 in1005.4 mb 0.03 in0.8 mm 0.00 in0.0 mm 0.04 in1.0 mm
04:40 AM 65.9°F18.8°C 64.4°F18.0°C 95% 6.0 mph N9.7 kmh N 13.0 mph20.9 kmh 29.69 in1005.4 mb 0.03 in0.8 mm 0.00 in0.0 mm 0.04 in1.0 mm
04:45 AM 65.9°F18.8°C 64.4°F18.0°C 95% 4.0 mph N6.4 kmh N 5.0 mph8.0 kmh 29.69 in1005.4 mb 0.01 in0.3 mm 0.00 in0.0 mm 0.04 in1.0 mm
04:50 AM 65.9°F18.8°C 64.4°F18.0°C 95% 3.0 mph N4.8 kmh N 8.0 mph12.9 kmh 29.69 in1005.4 mb 0.01 in0.3 mm 0.00 in0.0 mm 0.04 in1.0 mm
04:55 AM 65.9°F18.8°C 64.4°F18.0°C 95% 5.0 mph N8.0 kmh N 8.0 mph12.9 kmh 29.69 in1005.4 mb 0.01 in0.3 mm 0.00 in0.0 mm 0.04 in1.0 mm
05:00 AM 65.9°F18.8°C 64.4°F18.0°C 95% 3.0 mph N4.8 kmh N 5.0 mph8.0 kmh 29.69 in1005.4 mb 0.00 in0.0 mm 0.00 in0.0 mm 0.04 in1.0 mm
05:05 AM 65.9°F18.8°C 64.7°F18.2°C 96% 6.0 mph N9.7 kmh N 10.0 mph16.1 kmh 29.69 in1005.4 mb 0.00 in0.0 mm 0.00 in0.0 mm 0.04 in1.0 mm
05:10 AM 65.9°F18.8°C 64.7°F18.2°C 96% 4.0 mph N6.4 kmh N 11.0 mph17.7 kmh 29.68 in1005.1 mb 0.00 in0.0 mm 0.00 in0.0 mm 0.04 in1.0 mm
05:15 AM 65.9°F18.8°C 64.7°F18.2°C 96% 6.0 mph N9.7 kmh N 6.0 mph9.7 kmh 29.68 in1005.1 mb 0.00 in0.0 mm 0.00 in0.0 mm 0.04 in1.0 mm
05:20 AM 65.9°F18.8°C 64.7°F18.2°C 96% 3.0 mph N4.8 kmh N 8.0 mph12.9 kmh 29.67 in1004.7 mb 0.00 in0.0 mm 0.00 in0.0 mm 0.04 in1.0 mm
05:25 AM 65.9°F18.8°C 64.7°F18.2°C 96% 2.0 mph N3.2 kmh N 9.0 mph14.5 kmh 29.66 in1004.4 mb 0.01 in0.3 mm 0.12 in3.0 mm 0.05 in1.3 mm
05:30 AM 65.9°F18.8°C 64.7°F18.2°C 96% 3.0 mph N4.8 kmh N 6.0 mph9.7 kmh 29.66 in1004.4 mb 0.01 in0.3 mm 0.00 in0.0 mm 0.05 in1.3 mm
05:35 AM 65.9°F18.8°C 64.7°F18.2°C 96% 1.0 mph N1.6 kmh N 6.0 mph9.7 kmh 29.65 in1004.1 mb 0.01 in0.3 mm 0.00 in0.0 mm 0.05 in1.3 mm
05:40 AM 65.9°F18.8°C 64.7°F18.2°C 96% 3.0 mph N4.8 kmh N 6.0 mph9.7 kmh 29.66 in1004.4 mb 0.01 in0.3 mm 0.00 in0.0 mm 0.05 in1.3 mm
05:45 AM 66.0°F18.9°C 64.8°F18.2°C 96% 7.0 mph N11.3 kmh N 7.0 mph11.3 kmh 29.66 in1004.4 mb 0.01 in0.3 mm 0.00 in0.0 mm 0.05 in1.3 mm
05:50 AM 66.0°F18.9°C 64.8°F18.2°C 96% 9.0 mph N14.5 kmh N 11.0 mph17.7 kmh 29.67 in1004.7 mb 0.01 in0.3 mm 0.00 in0.0 mm 0.05 in1.3 mm
05:55 AM 66.1°F18.9°C 64.9°F18.3°C 96% 5.0 mph N8.0 kmh N 14.0 mph22.5 kmh 29.67 in1004.7 mb 0.01 in0.3 mm 0.00 in0.0 mm 0.05 in1.3 mm
06:00 AM 66.1°F18.9°C 64.9°F18.3°C 96% 5.0 mph N8.0 kmh N 6.0 mph9.7 kmh 29.67 in1004.7 mb 0.01 in0.3 mm 0.00 in0.0 mm 0.05 in1.3 mm
06:05 AM 66.2°F19.0°C 65.0°F18.3°C 96% 6.0 mph N9.7 kmh N 14.0 mph22.5 kmh 29.67 in1004.7 mb 0.01 in0.3 mm 0.00 in0.0 mm 0.05 in1.3 mm
06:10 AM 66.3°F19.1°C 65.1°F18.4°C 96% 6.0 mph N9.7 kmh N 14.0 mph22.5 kmh 29.67 in1004.7 mb 0.01 in0.3 mm 0.00 in0.0 mm 0.05 in1.3 mm
06:15 AM 66.3°F19.1°C 65.1°F18.4°C 96% 6.0 mph N9.7 kmh N 9.0 mph14.5 kmh 29.68 in1005.1 mb 0.01 in0.3 mm 0.00 in0.0 mm 0.05 in1.3 mm
06:20 AM 66.4°F19.1°C 65.2°F18.4°C 96% 6.0 mph N9.7 kmh N 13.0 mph20.9 kmh 29.68 in1005.1 mb 0.01 in0.3 mm 0.00 in0.0 mm 0.05 in1.3 mm
06:25 AM 66.4°F19.1°C 65.2°F18.4°C 96% 9.0 mph N14.5 kmh N 14.0 mph22.5 kmh 29.68 in1005.1 mb 0.01 in0.3 mm 0.00 in0.0 mm 0.05 in1.3 mm
06:30 AM 66.4°F19.1°C 65.2°F18.4°C 96% 6.0 mph N9.7 kmh N 10.0 mph16.1 kmh 29.68 in1005.1 mb 0.00 in0.0 mm 0.00 in0.0 mm 0.05 in1.3 mm
06:35 AM 66.5°F19.2°C 65.3°F18.5°C 96% 5.0 mph N8.0 kmh N 13.0 mph20.9 kmh 29.68 in1005.1 mb 0.00 in0.0 mm 0.00 in0.0 mm 0.05 in1.3 mm
06:40 AM 66.5°F19.2°C 65.3°F18.5°C 96% 5.0 mph N8.0 kmh N 13.0 mph20.9 kmh 29.68 in1005.1 mb 0.00 in0.0 mm 0.00 in0.0 mm 0.05 in1.3 mm
06:45 AM 66.5°F19.2°C 65.3°F18.5°C 96% 4.0 mph N6.4 kmh N 9.0 mph14.5 kmh 29.68 in1005.1 mb 0.00 in0.0 mm 0.00 in0.0 mm 0.05 in1.3 mm
06:50 AM 66.4°F19.1°C 65.2°F18.4°C 96% 11.0 mph N17.7 kmh N 13.0 mph20.9 kmh 29.68 in1005.1 mb 0.00 in0.0 mm 0.00 in0.0 mm 0.05 in1.3 mm
06:55 AM 66.3°F19.1°C 65.1°F18.4°C 96% 2.0 mph N3.2 kmh N 14.0 mph22.5 kmh 29.68 in1005.1 mb 0.06 in1.5 mm 0.72 in18.3 mm 0.11 in2.8 mm
07:00 AM 66.1°F18.9°C 64.6°F18.1°C 95% 5.0 mph N8.0 kmh N 9.0 mph14.5 kmh 29.68 in1005.1 mb 0.10 in2.5 mm 0.04 in1.0 mm 0.15 in3.8 mm
07:05 AM 66.0°F18.9°C 64.8°F18.2°C 96% 10.0 mph N16.1 kmh N 12.0 mph19.3 kmh 29.69 in1005.4 mb 0.11 in2.8 mm 0.12 in3.0 mm 0.16 in4.1 mm
07:10 AM 66.0°F18.9°C 64.8°F18.2°C 96% 4.0 mph N6.4 kmh N 15.0 mph24.1 kmh 29.69 in1005.4 mb 0.12 in3.0 mm 0.12 in3.0 mm 0.17 in4.3 mm
07:15 AM 66.0°F18.9°C 64.8°F18.2°C 96% 4.0 mph N6.4 kmh N 8.0 mph12.9 kmh 29.68 in1005.1 mb 0.12 in3.0 mm 0.00 in0.0 mm 0.17 in4.3 mm
07:20 AM 65.9°F18.8°C 64.7°F18.2°C 96% 5.0 mph N8.0 kmh N 13.0 mph20.9 kmh 29.68 in1005.1 mb 0.13 in3.3 mm 0.12 in3.0 mm 0.18 in4.6 mm
07:25 AM 65.9°F18.8°C 64.7°F18.2°C 96% 4.0 mph N6.4 kmh N 13.0 mph20.9 kmh 29.69 in1005.4 mb 0.13 in3.3 mm 0.00 in0.0 mm 0.18 in4.6 mm
07:30 AM 65.9°F18.8°C 64.7°F18.2°C 96% 4.0 mph N6.4 kmh N 5.0 mph8.0 kmh 29.68 in1005.1 mb 0.14 in3.6 mm 0.12 in3.0 mm 0.19 in4.8 mm
07:35 AM 65.9°F18.8°C 64.7°F18.2°C 96% 3.0 mph N4.8 kmh N 10.0 mph16.1 kmh 29.69 in1005.4 mb 0.15 in3.8 mm 0.12 in3.0 mm 0.20 in5.1 mm
07:40 AM 65.9°F18.8°C 64.7°F18.2°C 96% 7.0 mph N11.3 kmh N 16.0 mph25.7 kmh 29.69 in1005.4 mb 0.16 in4.1 mm 0.12 in3.0 mm 0.21 in5.3 mm
07:45 AM 65.9°F18.8°C 64.7°F18.2°C 96% 12.0 mph N19.3 kmh N 12.0 mph19.3 kmh 29.69 in1005.4 mb 0.17 in4.3 mm 0.12 in3.0 mm 0.22 in5.6 mm
07:50 AM 65.8°F18.8°C 64.6°F18.1°C 96% 4.0 mph N6.4 kmh N 12.0 mph19.3 kmh 29.68 in1005.1 mb 0.20 in5.1 mm 0.36 in9.1 mm 0.25 in6.4 mm
07:55 AM 65.7°F18.7°C 64.5°F18.1°C 96% 4.0 mph N6.4 kmh N 15.0 mph24.1 kmh 29.68 in1005.1 mb 0.22 in5.6 mm 0.24 in6.1 mm 0.27 in6.9 mm
08:00 AM 65.6°F18.7°C 64.4°F18.0°C 96% 4.0 mph N6.4 kmh N 4.0 mph6.4 kmh 29.68 in1005.1 mb 0.15 in3.8 mm 0.00 in0.0 mm 0.27 in6.9 mm
08:05 AM 65.5°F18.6°C 64.3°F17.9°C 96% 2.0 mph N3.2 kmh N 10.0 mph16.1 kmh 29.68 in1005.1 mb 0.17 in4.3 mm 0.24 in6.1 mm 0.29 in7.4 mm
08:10 AM 65.5°F18.6°C 64.6°F18.1°C 97% 4.0 mph N6.4 kmh N 10.0 mph16.1 kmh 29.68 in1005.1 mb 0.18 in4.6 mm 0.12 in3.0 mm 0.30 in7.6 mm
08:15 AM 65.5°F18.6°C 64.6°F18.1°C 97% 3.0 mph N4.8 kmh N 5.0 mph8.0 kmh 29.68 in1005.1 mb 0.19 in4.8 mm 0.12 in3.0 mm 0.31 in7.9 mm
08:20 AM 65.5°F18.6°C 64.6°F18.1°C 97% 3.0 mph N4.8 kmh N 7.0 mph11.3 kmh 29.67 in1004.7 mb 0.22 in5.6 mm 0.36 in9.1 mm 0.34 in8.6 mm
08:25 AM 65.6°F18.7°C 64.7°F18.2°C 97% 2.0 mph N3.2 kmh N 9.0 mph14.5 kmh 29.67 in1004.7 mb 0.23 in5.8 mm 0.12 in3.0 mm 0.35 in8.9 mm
08:30 AM 65.7°F18.7°C 64.8°F18.2°C 97% 2.0 mph N3.2 kmh N 2.0 mph3.2 kmh 29.66 in1004.4 mb 0.23 in5.8 mm 0.00 in0.0 mm 0.35 in8.9 mm
08:35 AM 65.8°F18.8°C 64.9°F18.3°C 97% 1.0 mph N1.6 kmh N 6.0 mph9.7 kmh 29.67 in1004.7 mb 0.24 in6.1 mm 0.12 in3.0 mm 0.36 in9.1 mm
08:40 AM 65.9°F18.8°C 65.3°F18.5°C 98% 2.0 mph N3.2 kmh N 7.0 mph11.3 kmh 29.67 in1004.7 mb 0.25 in6.4 mm 0.12 in3.0 mm 0.37 in9.4 mm
08:45 AM 66.0°F18.9°C 65.1°F18.4°C 97% 2.0 mph N3.2 kmh N 3.0 mph4.8 kmh 29.68 in1005.1 mb 0.23 in5.8 mm 0.00 in0.0 mm 0.37 in9.4 mm
08:50 AM 66.1°F18.9°C 65.5°F18.6°C 98% 1.0 mph N1.6 kmh N 3.0 mph4.8 kmh 29.69 in1005.4 mb 0.24 in6.1 mm 0.12 in3.0 mm 0.38 in9.7 mm
08:55 AM 66.1°F18.9°C 65.5°F18.6°C 98% 2.0 mph N3.2 kmh N 7.0 mph11.3 kmh 29.68 in1005.1 mb 0.24 in6.1 mm 0.00 in0.0 mm 0.38 in9.7 mm
09:00 AM 66.2°F19.0°C 65.3°F18.5°C 97% 3.0 mph N4.8 kmh N 4.0 mph6.4 kmh 29.68 in1005.1 mb 0.17 in4.3 mm 0.00 in0.0 mm 0.38 in9.7 mm
09:05 AM 66.3°F19.1°C 65.4°F18.6°C 97% 1.0 mph N1.6 kmh N 7.0 mph11.3 kmh 29.69 in1005.4 mb 0.17 in4.3 mm 0.00 in0.0 mm 0.38 in9.7 mm
09:10 AM 66.3°F19.1°C 65.4°F18.6°C 97% 2.0 mph N3.2 kmh N 7.0 mph11.3 kmh 29.69 in1005.4 mb 0.18 in4.6 mm 0.12 in3.0 mm 0.39 in9.9 mm
09:15 AM 66.3°F19.1°C 65.7°F18.7°C 98% 2.0 mph N3.2 kmh N 3.0 mph4.8 kmh 29.68 in1005.1 mb 0.12 in3.0 mm 0.00 in0.0 mm 0.39 in9.9 mm
09:20 AM 66.4°F19.1°C 65.8°F18.8°C 98% Calm Calm 5.0 mph8.0 kmh 29.69 in1005.4 mb 0.12 in3.0 mm 0.00 in0.0 mm 0.39 in9.9 mm
09:25 AM 66.5°F19.2°C 65.9°F18.8°C 98% 1.0 mph N1.6 kmh N 5.0 mph8.0 kmh 29.68 in1005.1 mb 0.12 in3.0 mm 0.00 in0.0 mm 0.39 in9.9 mm
09:30 AM 66.6°F19.2°C 66.0°F18.9°C 98% Calm Calm -- 29.69 in1005.4 mb 0.06 in1.5 mm 0.00 in0.0 mm 0.39 in9.9 mm
09:35 AM 66.6°F19.2°C 66.0°F18.9°C 98% 2.0 mph N3.2 kmh N 3.0 mph4.8 kmh 29.68 in1005.1 mb 0.06 in1.5 mm 0.00 in0.0 mm 0.39 in9.9 mm
09:40 AM 66.7°F19.3°C 66.1°F18.9°C 98% 1.0 mph N1.6 kmh N 3.0 mph4.8 kmh 29.68 in1005.1 mb 0.06 in1.5 mm 0.00 in0.0 mm 0.39 in9.9 mm
09:45 AM 66.7°F19.3°C 66.1°F18.9°C 98% Calm Calm -- 29.68 in1005.1 mb 0.03 in0.8 mm 0.00 in0.0 mm 0.39 in9.9 mm
09:50 AM 66.8°F19.3°C 66.2°F19.0°C 98% Calm Calm 4.0 mph6.4 kmh 29.68 in1005.1 mb 0.03 in0.8 mm 0.00 in0.0 mm 0.39 in9.9 mm
09:55 AM 66.9°F19.4°C 66.3°F19.1°C 98% 1.0 mph N1.6 kmh N 4.0 mph6.4 kmh 29.67 in1004.7 mb 0.03 in0.8 mm 0.00 in0.0 mm 0.39 in9.9 mm
10:00 AM 66.9°F19.4°C 66.3°F19.1°C 98% Calm Calm -- 29.67 in1004.7 mb 0.01 in0.3 mm 0.00 in0.0 mm 0.39 in9.9 mm
10:05 AM 67.0°F19.4°C 66.4°F19.1°C 98% 2.0 mph N3.2 kmh N 2.0 mph3.2 kmh 29.67 in1004.7 mb 0.01 in0.3 mm 0.00 in0.0 mm 0.39 in9.9 mm
10:10 AM 67.2°F19.6°C 66.6°F19.2°C 98% Calm Calm 4.0 mph6.4 kmh 29.67 in1004.7 mb 0.01 in0.3 mm 0.00 in0.0 mm 0.39 in9.9 mm
10:15 AM 67.2°F19.6°C 66.6°F19.2°C 98% Calm Calm 1.0 mph1.6 kmh 29.67 in1004.7 mb 0.00 in0.0 mm 0.00 in0.0 mm 0.39 in9.9 mm
10:20 AM 67.3°F19.6°C 66.7°F19.3°C 98% Calm Calm 4.0 mph6.4 kmh 29.67 in1004.7 mb 0.00 in0.0 mm 0.00 in0.0 mm 0.39 in9.9 mm
10:25 AM 67.4°F19.7°C 66.8°F19.3°C 98% 4.0 mph N6.4 kmh N 4.0 mph6.4 kmh 29.67 in1004.7 mb 0.01 in0.3 mm 0.12 in3.0 mm 0.40 in10.2 mm
10:30 AM 66.9°F19.4°C 66.0°F18.9°C 97% 1.0 mph N1.6 kmh N 4.0 mph6.4 kmh 29.67 in1004.7 mb 0.02 in0.5 mm 0.12 in3.0 mm 0.41 in10.4 mm
10:35 AM 66.5°F19.2°C 65.6°F18.7°C 97% 1.0 mph N1.6 kmh N 4.0 mph6.4 kmh 29.67 in1004.7 mb 0.03 in0.8 mm 0.12 in3.0 mm 0.42 in10.7 mm
10:40 AM 66.3°F19.1°C 65.4°F18.6°C 97% 7.0 mph N11.3 kmh N 7.0 mph11.3 kmh 29.67 in1004.7 mb 0.03 in0.8 mm 0.00 in0.0 mm 0.42 in10.7 mm
10:45 AM 66.2°F19.0°C 65.3°F18.5°C 97% 2.0 mph N3.2 kmh N 5.0 mph8.0 kmh 29.67 in1004.7 mb 0.03 in0.8 mm 0.00 in0.0 mm 0.42 in10.7 mm
10:50 AM 66.2°F19.0°C 65.6°F18.7°C 98% 1.0 mph N1.6 kmh N 6.0 mph9.7 kmh 29.67 in1004.7 mb 0.03 in0.8 mm 0.00 in0.0 mm 0.42 in10.7 mm
10:55 AM 66.2°F19.0°C 65.6°F18.7°C 98% Calm Calm 6.0 mph9.7 kmh 29.67 in1004.7 mb 0.03 in0.8 mm 0.00 in0.0 mm 0.42 in10.7 mm
11:00 AM 66.3°F19.1°C 65.7°F18.7°C 98% Calm Calm 2.0 mph3.2 kmh 29.67 in1004.7 mb 0.03 in0.8 mm 0.00 in0.0 mm 0.42 in10.7 mm
11:05 AM 66.3°F19.1°C 65.7°F18.7°C 98% 1.0 mph N1.6 kmh N 5.0 mph8.0 kmh 29.67 in1004.7 mb 0.03 in0.8 mm 0.00 in0.0 mm 0.42 in10.7 mm
11:10 AM 66.3°F19.1°C 65.7°F18.7°C 98% 5.0 mph N8.0 kmh N 5.0 mph8.0 kmh 29.67 in1004.7 mb 0.04 in1.0 mm 0.12 in3.0 mm 0.43 in10.9 mm
11:15 AM 66.3°F19.1°C 65.7°F18.7°C 98% Calm Calm -- 29.67 in1004.7 mb 0.05 in1.3 mm 0.12 in3.0 mm 0.44 in11.2 mm
11:20 AM 66.3°F19.1°C 65.7°F18.7°C 98% Calm Calm 6.0 mph9.7 kmh 29.67 in1004.7 mb 0.10 in2.5 mm 0.60 in15.2 mm 0.49 in12.4 mm
11:25 AM 66.3°F19.1°C 65.7°F18.7°C 98% 2.0 mph N3.2 kmh N 6.0 mph9.7 kmh 29.67 in1004.7 mb 0.15 in3.8 mm 0.60 in15.2 mm 0.54 in13.7 mm
11:30 AM 66.4°F19.1°C 65.8°F18.8°C 98% 3.0 mph N4.8 kmh N 3.0 mph4.8 kmh 29.66 in1004.4 mb 0.16 in4.1 mm 0.12 in3.0 mm 0.55 in14.0 mm
11:35 AM 66.5°F19.2°C 65.9°F18.8°C 98% 3.0 mph N4.8 kmh N 6.0 mph9.7 kmh 29.66 in1004.4 mb 0.17 in4.3 mm 0.12 in3.0 mm 0.56 in14.2 mm
11:40 AM 66.5°F19.2°C 65.9°F18.8°C 98% 4.0 mph N6.4 kmh N 6.0 mph9.7 kmh 29.66 in1004.4 mb 0.20 in5.1 mm 0.36 in9.1 mm 0.59 in15.0 mm
11:45 AM 66.5°F19.2°C 65.9°F18.8°C 98% 1.0 mph N1.6 kmh N 1.0 mph1.6 kmh 29.66 in1004.4 mb 0.20 in5.1 mm 0.00 in0.0 mm 0.59 in15.0 mm
11:50 AM 66.6°F19.2°C 66.0°F18.9°C 98% 2.0 mph N3.2 kmh N 4.0 mph6.4 kmh 29.66 in1004.4 mb 0.21 in5.3 mm 0.12 in3.0 mm 0.60 in15.2 mm
11:55 AM 66.8°F19.3°C 66.2°F19.0°C 98% 3.0 mph N4.8 kmh N 5.0 mph8.0 kmh 29.66 in1004.4 mb 0.21 in5.3 mm 0.00 in0.0 mm 0.60 in15.2 mm
12:00 PM 67.3°F19.6°C 67.0°F19.4°C 99% 3.0 mph N4.8 kmh N 3.0 mph4.8 kmh 29.66 in1004.4 mb 0.21 in5.3 mm 0.00 in0.0 mm 0.60 in15.2 mm
12:05 PM 67.5°F19.7°C 67.2°F19.6°C 99% 1.0 mph N1.6 kmh N 5.0 mph8.0 kmh 29.66 in1004.4 mb 0.21 in5.3 mm 0.00 in0.0 mm 0.60 in15.2 mm
12:10 PM 67.7°F19.8°C 67.1°F19.5°C 98% Calm Calm 5.0 mph8.0 kmh 29.66 in1004.4 mb 0.21 in5.3 mm 0.00 in0.0 mm 0.60 in15.2 mm
12:15 PM 68.2°F20.1°C 67.9°F19.9°C 99% 4.0 mph N6.4 kmh N 4.0 mph6.4 kmh 29.66 in1004.4 mb 0.19 in4.8 mm 0.00 in0.0 mm 0.60 in15.2 mm
12:20 PM 68.3°F20.2°C 67.7°F19.8°C 98% 3.0 mph N4.8 kmh N 6.0 mph9.7 kmh 29.66 in1004.4 mb 0.19 in4.8 mm 0.00 in0.0 mm 0.60 in15.2 mm
12:25 PM 68.2°F20.1°C 67.6°F19.8°C 98% Calm Calm 6.0 mph9.7 kmh 29.66 in1004.4 mb 0.19 in4.8 mm 0.00 in0.0 mm 0.60 in15.2 mm
12:30 PM 68.4°F20.2°C 67.8°F19.9°C 98% Calm Calm -- 29.66 in1004.4 mb 0.06 in1.5 mm 0.00 in0.0 mm 0.60 in15.2 mm
12:35 PM 68.6°F20.3°C 68.0°F20.0°C 98% Calm Calm 2.0 mph3.2 kmh 29.66 in1004.4 mb 0.06 in1.5 mm 0.00 in0.0 mm 0.60 in15.2 mm
12:40 PM 69.0°F20.6°C 68.4°F20.2°C 98% 4.0 mph N6.4 kmh N 6.0 mph9.7 kmh 29.66 in1004.4 mb 0.06 in1.5 mm 0.00 in0.0 mm 0.60 in15.2 mm
12:45 PM 69.1°F20.6°C 68.5°F20.3°C 98% 1.0 mph N1.6 kmh N 2.0 mph3.2 kmh 29.66 in1004.4 mb 0.01 in0.3 mm 0.00 in0.0 mm 0.60 in15.2 mm
12:50 PM 69.2°F20.7°C 68.6°F20.3°C 98% 1.0 mph N1.6 kmh N 4.0 mph6.4 kmh 29.66 in1004.4 mb 0.01 in0.3 mm 0.00 in0.0 mm 0.60 in15.2 mm
12:55 PM 69.3°F20.7°C 68.4°F20.2°C 97% 2.0 mph N3.2 kmh N 5.0 mph8.0 kmh 29.66 in1004.4 mb 0.01 in0.3 mm 0.00 in0.0 mm 0.60 in15.2 mm
01:00 PM 69.3°F20.7°C 68.4°F20.2°C 97% 2.0 mph N3.2 kmh N 2.0 mph3.2 kmh 29.66 in1004.4 mb 0.00 in0.0 mm 0.00 in0.0 mm 0.60 in15.2 mm
01:05 PM 69.6°F20.9°C 69.0°F20.6°C 98% Calm Calm 4.0 mph6.4 kmh 29.65 in1004.1 mb 0.00 in0.0 mm 0.00 in0.0 mm 0.60 in15.2 mm
01:10 PM 70.1°F21.2°C 69.2°F20.7°C 97% Calm Calm 4.0 mph6.4 kmh 29.65 in1004.1 mb 0.00 in0.0 mm 0.00 in0.0 mm 0.60 in15.2 mm
01:15 PM 70.2°F21.2°C 69.0°F20.6°C 96% Calm Calm -- 29.65 in1004.1 mb 0.00 in0.0 mm 0.00 in0.0 mm 0.60 in15.2 mm
01:20 PM 70.5°F21.4°C 69.3°F20.7°C 96% 4.0 mph N6.4 kmh N 6.0 mph9.7 kmh 29.65 in1004.1 mb 0.00 in0.0 mm 0.00 in0.0 mm 0.60 in15.2 mm
01:25 PM 70.8°F21.6°C 69.3°F20.7°C 95% 3.0 mph N4.8 kmh N 7.0 mph11.3 kmh 29.64 in1003.7 mb 0.00 in0.0 mm 0.00 in0.0 mm 0.60 in15.2 mm
01:30 PM 71.3°F21.8°C 69.8°F21.0°C 95% 3.0 mph N4.8 kmh N 3.0 mph4.8 kmh 29.64 in1003.7 mb 0.00 in0.0 mm 0.00 in0.0 mm 0.60 in15.2 mm
01:35 PM 71.7°F22.1°C 69.6°F20.9°C 93% 1.0 mph N1.6 kmh N 6.0 mph9.7 kmh 29.64 in1003.7 mb 0.00 in0.0 mm 0.00 in0.0 mm 0.60 in15.2 mm
01:40 PM 72.0°F22.2°C 69.6°F20.9°C 92% Calm Calm 6.0 mph9.7 kmh 29.63 in1003.4 mb 0.00 in0.0 mm 0.00 in0.0 mm 0.60 in15.2 mm
01:45 PM 72.4°F22.4°C 70.0°F21.1°C 92% 2.0 mph N3.2 kmh N 4.0 mph6.4 kmh 29.63 in1003.4 mb 0.00 in0.0 mm 0.00 in0.0 mm 0.60 in15.2 mm
01:50 PM 73.0°F22.8°C 70.5°F21.4°C 92% 4.0 mph N6.4 kmh N 6.0 mph9.7 kmh 29.62 in1003.0 mb 0.00 in0.0 mm 0.00 in0.0 mm 0.60 in15.2 mm
01:55 PM 73.5°F23.1°C 70.4°F21.3°C 90% 2.0 mph N3.2 kmh N 6.0 mph9.7 kmh 29.63 in1003.4 mb 0.00 in0.0 mm 0.00 in0.0 mm 0.60 in15.2 mm
02:00 PM 73.8°F23.2°C 70.4°F21.3°C 89% Calm Calm -- 29.63 in1003.4 mb 0.00 in0.0 mm 0.00 in0.0 mm 0.60 in15.2 mm
02:05 PM 73.8°F23.2°C 70.0°F21.1°C 88% Calm Calm 3.0 mph4.8 kmh 29.63 in1003.4 mb 0.00 in0.0 mm 0.00 in0.0 mm 0.60 in15.2 mm
02:10 PM 73.6°F23.1°C 69.8°F21.0°C 88% Calm Calm 3.0 mph4.8 kmh 29.64 in1003.7 mb 0.00 in0.0 mm 0.00 in0.0 mm 0.60 in15.2 mm
02:15 PM 73.3°F22.9°C 70.2°F21.2°C 90% 2.0 mph N3.2 kmh N 2.0 mph3.2 kmh 29.64 in1003.7 mb 0.05 in1.3 mm 0.60 in15.2 mm 0.65 in16.5 mm
02:20 PM 73.0°F22.8°C 70.2°F21.2°C 91% Calm Calm 2.0 mph3.2 kmh 29.64 in1003.7 mb 0.06 in1.5 mm 0.12 in3.0 mm 0.66 in16.8 mm
02:25 PM 72.8°F22.7°C 70.3°F21.3°C 92% Calm Calm 2.0 mph3.2 kmh 29.64 in1003.7 mb 0.06 in1.5 mm 0.00 in0.0 mm 0.66 in16.8 mm
02:30 PM 72.5°F22.5°C 70.1°F21.2°C 92% Calm Calm 1.0 mph1.6 kmh 29.64 in1003.7 mb 0.14 in3.6 mm 0.96 in24.4 mm 0.74 in18.8 mm
02:35 PM 72.2°F22.3°C 70.1°F21.2°C 93% Calm Calm 2.0 mph3.2 kmh 29.63 in1003.4 mb 0.14 in3.6 mm 0.00 in0.0 mm 0.74 in18.8 mm
02:40 PM 72.2°F22.3°C 70.4°F21.3°C 94% 5.0 mph N8.0 kmh N 7.0 mph11.3 kmh 29.64 in1003.7 mb 0.14 in3.6 mm 0.00 in0.0 mm 0.74 in18.8 mm
02:45 PM 72.8°F22.7°C 71.3°F21.8°C 95% 1.0 mph N1.6 kmh N 3.0 mph4.8 kmh 29.64 in1003.7 mb 0.14 in3.6 mm 0.00 in0.0 mm 0.74 in18.8 mm
02:50 PM 73.5°F23.1°C 71.7°F22.1°C 94% 5.0 mph N8.0 kmh N 5.0 mph8.0 kmh 29.64 in1003.7 mb 0.14 in3.6 mm 0.00 in0.0 mm 0.74 in18.8 mm
02:55 PM 73.9°F23.3°C 71.4°F21.9°C 92% 5.0 mph N8.0 kmh N 12.0 mph19.3 kmh 29.64 in1003.7 mb 0.14 in3.6 mm 0.00 in0.0 mm 0.74 in18.8 mm
03:00 PM 73.9°F23.3°C 71.1°F21.7°C 91% 6.0 mph N9.7 kmh N 6.0 mph9.7 kmh 29.64 in1003.7 mb 0.14 in3.6 mm 0.00 in0.0 mm 0.74 in18.8 mm
03:05 PM 74.2°F23.4°C 71.4°F21.9°C 91% 7.0 mph N11.3 kmh N 10.0 mph16.1 kmh 29.64 in1003.7 mb 0.14 in3.6 mm 0.00 in0.0 mm 0.74 in18.8 mm
03:10 PM 74.7°F23.7°C 70.9°F21.6°C 88% 4.0 mph N6.4 kmh N 13.0 mph20.9 kmh 29.64 in1003.7 mb 0.14 in3.6 mm 0.00 in0.0 mm 0.74 in18.8 mm
03:15 PM 75.0°F23.9°C 70.5°F21.4°C 86% 7.0 mph N11.3 kmh N 7.0 mph11.3 kmh 29.64 in1003.7 mb 0.09 in2.3 mm 0.00 in0.0 mm 0.74 in18.8 mm
03:20 PM 75.2°F24.0°C 70.4°F21.3°C 85% 6.0 mph N9.7 kmh N 12.0 mph19.3 kmh 29.64 in1003.7 mb 0.09 in2.3 mm 0.00 in0.0 mm 0.74 in18.8 mm
03:25 PM 75.4°F24.1°C 70.9°F21.6°C 86% 5.0 mph N8.0 kmh N 12.0 mph19.3 kmh 29.64 in1003.7 mb 0.09 in2.3 mm 0.00 in0.0 mm 0.74 in18.8 mm
03:30 PM 75.2°F24.0°C 69.7°F20.9°C 83% 1.0 mph N1.6 kmh N 9.0 mph14.5 kmh 29.63 in1003.4 mb 0.01 in0.3 mm 0.00 in0.0 mm 0.74 in18.8 mm
03:35 PM 74.9°F23.8°C 69.4°F20.8°C 83% 8.0 mph N12.9 kmh N 12.0 mph19.3 kmh 29.64 in1003.7 mb 0.01 in0.3 mm 0.00 in0.0 mm 0.74 in18.8 mm
03:40 PM 74.7°F23.7°C 69.6°F20.9°C 84% 1.0 mph N1.6 kmh N 12.0 mph19.3 kmh 29.64 in1003.7 mb 0.01 in0.3 mm 0.00 in0.0 mm 0.74 in18.8 mm
03:45 PM 74.6°F23.7°C 70.8°F21.6°C 88% 8.0 mph N12.9 kmh N 13.0 mph20.9 kmh 29.63 in1003.4 mb 0.00 in0.0 mm 0.00 in0.0 mm 0.74 in18.8 mm
03:50 PM 74.6°F23.7°C 70.1°F21.2°C 86% 8.0 mph N12.9 kmh N 13.0 mph20.9 kmh 29.63 in1003.4 mb 0.00 in0.0 mm 0.00 in0.0 mm 0.74 in18.8 mm
03:55 PM 74.9°F23.8°C 70.4°F21.3°C 86% 4.0 mph N6.4 kmh N 13.0 mph20.9 kmh 29.63 in1003.4 mb 0.00 in0.0 mm 0.00 in0.0 mm 0.74 in18.8 mm
04:00 PM 75.4°F24.1°C 69.2°F20.7°C 81% 6.0 mph N9.7 kmh N 7.0 mph11.3 kmh 29.63 in1003.4 mb 0.00 in0.0 mm 0.00 in0.0 mm 0.74 in18.8 mm
04:05 PM 75.9°F24.4°C 70.0°F21.1°C 82% 7.0 mph N11.3 kmh N 14.0 mph22.5 kmh 29.63 in1003.4 mb 0.00 in0.0 mm 0.00 in0.0 mm 0.74 in18.8 mm
04:10 PM 76.3°F24.6°C 68.9°F20.5°C 78% 15.0 mph N24.1 kmh N 16.0 mph25.7 kmh 29.63 in1003.4 mb 0.00 in0.0 mm 0.00 in0.0 mm 0.74 in18.8 mm
04:15 PM 76.3°F24.6°C 68.2°F20.1°C 76% 10.0 mph N16.1 kmh N 10.0 mph16.1 kmh 29.64 in1003.7 mb 0.00 in0.0 mm 0.00 in0.0 mm 0.74 in18.8 mm
04:20 PM 76.1°F24.5°C 68.4°F20.2°C 77% 3.0 mph N4.8 kmh N 16.0 mph25.7 kmh 29.63 in1003.4 mb 0.00 in0.0 mm 0.00 in0.0 mm 0.74 in18.8 mm
04:25 PM 76.2°F24.6°C 67.7°F19.8°C 75% 8.0 mph N12.9 kmh N 16.0 mph25.7 kmh 29.63 in1003.4 mb 0.00 in0.0 mm 0.00 in0.0 mm 0.74 in18.8 mm
04:30 PM 76.5°F24.7°C 68.8°F20.4°C 77% 10.0 mph N16.1 kmh N 10.0 mph16.1 kmh 29.63 in1003.4 mb 0.00 in0.0 mm 0.00 in0.0 mm 0.74 in18.8 mm
04:35 PM 76.7°F24.8°C 68.2°F20.1°C 75% 10.0 mph N16.1 kmh N 21.0 mph33.8 kmh 29.64 in1003.7 mb 0.00 in0.0 mm 0.00 in0.0 mm 0.74 in18.8 mm
04:40 PM 76.1°F24.5°C 68.0°F20.0°C 76% 9.0 mph N14.5 kmh N 21.0 mph33.8 kmh 29.64 in1003.7 mb 0.00 in0.0 mm 0.00 in0.0 mm 0.74 in18.8 mm
04:45 PM 75.6°F24.2°C 67.9°F19.9°C 77% 8.0 mph N12.9 kmh N 8.0 mph12.9 kmh 29.64 in1003.7 mb 0.00 in0.0 mm 0.00 in0.0 mm 0.74 in18.8 mm
04:50 PM 75.9°F24.4°C 67.4°F19.7°C 75% 5.0 mph N8.0 kmh N 17.0 mph27.4 kmh 29.63 in1003.4 mb 0.00 in0.0 mm 0.00 in0.0 mm 0.74 in18.8 mm
04:55 PM 76.6°F24.8°C 68.1°F20.1°C 75% 8.0 mph N12.9 kmh N 17.0 mph27.4 kmh 29.62 in1003.0 mb 0.00 in0.0 mm 0.00 in0.0 mm 0.74 in18.8 mm
05:00 PM 77.0°F25.0°C 68.1°F20.1°C 74% 9.0 mph N14.5 kmh N 12.0 mph19.3 kmh 29.62 in1003.0 mb 0.00 in0.0 mm 0.00 in0.0 mm 0.74 in18.8 mm
05:05 PM 77.1°F25.1°C 67.4°F19.7°C 72% 5.0 mph N8.0 kmh N 15.0 mph24.1 kmh 29.62 in1003.0 mb 0.00 in0.0 mm 0.00 in0.0 mm 0.74 in18.8 mm
05:10 PM 77.1°F25.1°C 67.8°F19.9°C 73% 7.0 mph N11.3 kmh N 15.0 mph24.1 kmh 29.62 in1003.0 mb 0.00 in0.0 mm 0.00 in0.0 mm 0.74 in18.8 mm
05:15 PM 76.9°F24.9°C 67.6°F19.8°C 73% 5.0 mph N8.0 kmh N 9.0 mph14.5 kmh 29.62 in1003.0 mb 0.00 in0.0 mm 0.00 in0.0 mm 0.74 in18.8 mm
05:20 PM 76.9°F24.9°C 66.0°F18.9°C 69% 7.0 mph N11.3 kmh N 18.0 mph29.0 kmh 29.63 in1003.4 mb 0.00 in0.0 mm 0.00 in0.0 mm 0.74 in18.8 mm
05:25 PM 76.9°F24.9°C 65.5°F18.6°C 68% 7.0 mph N11.3 kmh N 18.0 mph29.0 kmh 29.63 in1003.4 mb 0.00 in0.0 mm 0.00 in0.0 mm 0.74 in18.8 mm
05:30 PM 76.9°F24.9°C 66.8°F19.3°C 71% 10.0 mph N16.1 kmh N 11.0 mph17.7 kmh 29.64 in1003.7 mb 0.00 in0.0 mm 0.00 in0.0 mm 0.74 in18.8 mm
05:35 PM 77.0°F25.0°C 65.6°F18.7°C 68% 13.0 mph N20.9 kmh N 17.0 mph27.4 kmh 29.64 in1003.7 mb 0.00 in0.0 mm 0.00 in0.0 mm 0.74 in18.8 mm
05:40 PM 77.0°F25.0°C 66.1°F18.9°C 69% 7.0 mph N11.3 kmh N 17.0 mph27.4 kmh 29.64 in1003.7 mb 0.00 in0.0 mm 0.00 in0.0 mm 0.74 in18.8 mm
05:45 PM 77.1°F25.1°C 66.6°F19.2°C 70% 12.0 mph N19.3 kmh N 15.0 mph24.1 kmh 29.65 in1004.1 mb 0.00 in0.0 mm 0.00 in0.0 mm 0.74 in18.8 mm
05:50 PM 77.2°F25.1°C 65.8°F18.8°C 68% 11.0 mph N17.7 kmh N 18.0 mph29.0 kmh 29.65 in1004.1 mb 0.00 in0.0 mm 0.00 in0.0 mm 0.74 in18.8 mm
05:55 PM 76.8°F24.9°C 65.9°F18.8°C 69% 4.0 mph N6.4 kmh N 18.0 mph29.0 kmh 29.65 in1004.1 mb 0.00 in0.0 mm 0.00 in0.0 mm 0.74 in18.8 mm
06:00 PM 76.5°F24.7°C 65.6°F18.7°C 69% 11.0 mph N17.7 kmh N 14.0 mph22.5 kmh 29.65 in1004.1 mb 0.00 in0.0 mm 0.00 in0.0 mm 0.74 in18.8 mm
06:05 PM 76.3°F24.6°C 65.8°F18.8°C 70% 7.0 mph N11.3 kmh N 14.0 mph22.5 kmh 29.65 in1004.1 mb 0.00 in0.0 mm 0.00 in0.0 mm 0.74 in18.8 mm
06:10 PM 75.9°F24.4°C 65.8°F18.8°C 71% 7.0 mph N11.3 kmh N 14.0 mph22.5 kmh 29.65 in1004.1 mb 0.00 in0.0 mm 0.00 in0.0 mm 0.74 in18.8 mm
06:15 PM 75.6°F24.2°C 65.1°F18.4°C 70% 8.0 mph N12.9 kmh N 8.0 mph12.9 kmh 29.65 in1004.1 mb 0.00 in0.0 mm 0.00 in0.0 mm 0.74 in18.8 mm
06:20 PM 75.3°F24.1°C 65.3°F18.5°C 71% 7.0 mph N11.3 kmh N 14.0 mph22.5 kmh 29.65 in1004.1 mb 0.00 in0.0 mm 0.00 in0.0 mm 0.74 in18.8 mm
06:25 PM 75.2°F24.0°C 66.0°F18.9°C 73% 10.0 mph N16.1 kmh N 14.0 mph22.5 kmh 29.66 in1004.4 mb 0.00 in0.0 mm 0.00 in0.0 mm 0.74 in18.8 mm
06:30 PM 75.1°F23.9°C 65.5°F18.6°C 72% 10.0 mph N16.1 kmh N 12.0 mph19.3 kmh 29.66 in1004.4 mb 0.00 in0.0 mm 0.00 in0.0 mm 0.74 in18.8 mm
06:35 PM 74.8°F23.8°C 65.6°F18.7°C 73% 6.0 mph N9.7 kmh N 18.0 mph29.0 kmh 29.67 in1004.7 mb 0.00 in0.0 mm 0.00 in0.0 mm 0.74 in18.8 mm
06:40 PM 74.5°F23.6°C 64.9°F18.3°C 72% 7.0 mph N11.3 kmh N 18.0 mph29.0 kmh 29.67 in1004.7 mb 0.00 in0.0 mm 0.00 in0.0 mm 0.74 in18.8 mm
06:45 PM 74.7°F23.7°C 64.3°F17.9°C 70% 8.0 mph N12.9 kmh N 13.0 mph20.9 kmh 29.67 in1004.7 mb 0.00 in0.0 mm 0.00 in0.0 mm 0.74 in18.8 mm
06:50 PM 74.9°F23.8°C 64.9°F18.3°C 71% 14.0 mph N22.5 kmh N 22.0 mph35.4 kmh 29.67 in1004.7 mb 0.00 in0.0 mm 0.00 in0.0 mm 0.74 in18.8 mm
06:55 PM 74.9°F23.8°C 65.3°F18.5°C 72% 13.0 mph N20.9 kmh N 22.0 mph35.4 kmh 29.68 in1005.1 mb 0.00 in0.0 mm 0.00 in0.0 mm 0.74 in18.8 mm
07:00 PM 74.6°F23.7°C 65.4°F18.6°C 73% 7.0 mph N11.3 kmh N 13.0 mph20.9 kmh 29.67 in1004.7 mb 0.00 in0.0 mm 0.00 in0.0 mm 0.74 in18.8 mm
07:05 PM 74.1°F23.4°C 63.3°F17.4°C 69% 7.0 mph N11.3 kmh N 21.0 mph33.8 kmh 29.67 in1004.7 mb 0.00 in0.0 mm 0.00 in0.0 mm 0.74 in18.8 mm
07:10 PM 73.6°F23.1°C 62.4°F16.9°C 68% 10.0 mph N16.1 kmh N 21.0 mph33.8 kmh 29.67 in1004.7 mb 0.00 in0.0 mm 0.00 in0.0 mm 0.74 in18.8 mm
07:15 PM 73.1°F22.8°C 62.7°F17.1°C 70% 11.0 mph N17.7 kmh N 12.0 mph19.3 kmh 29.67 in1004.7 mb 0.00 in0.0 mm 0.00 in0.0 mm 0.74 in18.8 mm
07:20 PM 72.8°F22.7°C 63.3°F17.4°C 72% 8.0 mph N12.9 kmh N 16.0 mph25.7 kmh 29.67 in1004.7 mb 0.00 in0.0 mm 0.00 in0.0 mm 0.74 in18.8 mm
07:25 PM 72.5°F22.5°C 62.6°F17.0°C 71% 7.0 mph N11.3 kmh N 21.0 mph33.8 kmh 29.67 in1004.7 mb 0.00 in0.0 mm 0.00 in0.0 mm 0.74 in18.8 mm
07:30 PM 72.2°F22.3°C 62.7°F17.1°C 72% 7.0 mph N11.3 kmh N 9.0 mph14.5 kmh 29.67 in1004.7 mb 0.00 in0.0 mm 0.00 in0.0 mm 0.74 in18.8 mm
07:35 PM 71.7°F22.1°C 63.0°F17.2°C 74% 7.0 mph N11.3 kmh N 15.0 mph24.1 kmh 29.67 in1004.7 mb 0.00 in0.0 mm 0.00 in0.0 mm 0.74 in18.8 mm
07:40 PM 71.1°F21.7°C 61.6°F16.4°C 72% 10.0 mph N16.1 kmh N 24.0 mph38.6 kmh 29.67 in1004.7 mb 0.00 in0.0 mm 0.00 in0.0 mm 0.74 in18.8 mm
07:45 PM 70.7°F21.5°C 61.6°F16.4°C 73% 11.0 mph N17.7 kmh N 13.0 mph20.9 kmh 29.66 in1004.4 mb 0.00 in0.0 mm 0.00 in0.0 mm 0.74 in18.8 mm
07:50 PM 70.4°F21.3°C 61.3°F16.3°C 73% 14.0 mph N22.5 kmh N 26.0 mph41.8 kmh 29.66 in1004.4 mb 0.00 in0.0 mm 0.00 in0.0 mm 0.74 in18.8 mm
07:55 PM 70.1°F21.2°C 61.4°F16.3°C 74% 20.0 mph N32.2 kmh N 26.0 mph41.8 kmh 29.66 in1004.4 mb 0.00 in0.0 mm 0.00 in0.0 mm 0.74 in18.8 mm
08:00 PM 69.8°F21.0°C 61.5°F16.4°C 75% 6.0 mph N9.7 kmh N 8.0 mph12.9 kmh 29.66 in1004.4 mb 0.00 in0.0 mm 0.00 in0.0 mm 0.74 in18.8 mm
08:05 PM 69.5°F20.8°C 61.6°F16.4°C 76% 8.0 mph N12.9 kmh N 21.0 mph33.8 kmh 29.66 in1004.4 mb 0.00 in0.0 mm 0.00 in0.0 mm 0.74 in18.8 mm
08:10 PM 69.4°F20.8°C 61.5°F16.4°C 76% 10.0 mph N16.1 kmh N 21.0 mph33.8 kmh 29.66 in1004.4 mb 0.00 in0.0 mm 0.00 in0.0 mm 0.74 in18.8 mm
08:15 PM 69.2°F20.7°C 61.7°F16.5°C 77% 8.0 mph N12.9 kmh N 11.0 mph17.7 kmh 29.66 in1004.4 mb 0.00 in0.0 mm 0.00 in0.0 mm 0.74 in18.8 mm
08:20 PM 69.1°F20.6°C 61.2°F16.2°C 76% 8.0 mph N12.9 kmh N 16.0 mph25.7 kmh 29.65 in1004.1 mb 0.00 in0.0 mm 0.00 in0.0 mm 0.74 in18.8 mm
08:25 PM 69.0°F20.6°C 61.1°F16.2°C 76% 4.0 mph N6.4 kmh N 16.0 mph25.7 kmh 29.65 in1004.1 mb 0.00 in0.0 mm 0.00 in0.0 mm 0.74 in18.8 mm
08:30 PM 68.8°F20.4°C 60.9°F16.1°C 76% 8.0 mph N12.9 kmh N 10.0 mph16.1 kmh 29.65 in1004.1 mb 0.00 in0.0 mm 0.00 in0.0 mm 0.74 in18.8 mm
08:35 PM 68.7°F20.4°C 60.8°F16.0°C 76% 11.0 mph N17.7 kmh N 19.0 mph30.6 kmh 29.65 in1004.1 mb 0.00 in0.0 mm 0.00 in0.0 mm 0.74 in18.8 mm
08:40 PM 68.5°F20.3°C 60.6°F15.9°C 76% 7.0 mph N11.3 kmh N 19.0 mph30.6 kmh 29.65 in1004.1 mb 0.00 in0.0 mm 0.00 in0.0 mm 0.74 in18.8 mm
08:45 PM 68.4°F20.2°C 60.9°F16.1°C 77% 8.0 mph N12.9 kmh N 9.0 mph14.5 kmh 29.65 in1004.1 mb 0.00 in0.0 mm 0.00 in0.0 mm 0.74 in18.8 mm
08:50 PM 68.3°F20.2°C 60.8°F16.0°C 77% 7.0 mph N11.3 kmh N 11.0 mph17.7 kmh 29.65 in1004.1 mb 0.00 in0.0 mm 0.00 in0.0 mm 0.74 in18.8 mm
08:55 PM 68.1°F20.1°C 60.3°F15.7°C 76% 6.0 mph N9.7 kmh N 15.0 mph24.1 kmh 29.65 in1004.1 mb 0.00 in0.0 mm 0.00 in0.0 mm 0.74 in18.8 mm
09:00 PM 68.0°F20.0°C 60.2°F15.7°C 76% 6.0 mph N9.7 kmh N 9.0 mph14.5 kmh 29.65 in1004.1 mb 0.00 in0.0 mm 0.00 in0.0 mm 0.74 in18.8 mm
09:05 PM 68.0°F20.0°C 60.2°F15.7°C 76% 4.0 mph N6.4 kmh N 13.0 mph20.9 kmh 29.66 in1004.4 mb 0.00 in0.0 mm 0.00 in0.0 mm 0.74 in18.8 mm
09:10 PM 68.0°F20.0°C 60.2°F15.7°C 76% 6.0 mph N9.7 kmh N 13.0 mph20.9 kmh 29.66 in1004.4 mb 0.00 in0.0 mm 0.00 in0.0 mm 0.74 in18.8 mm
09:15 PM 67.9°F19.9°C 60.1°F15.6°C 76% 7.0 mph N11.3 kmh N 8.0 mph12.9 kmh 29.66 in1004.4 mb 0.00 in0.0 mm 0.00 in0.0 mm 0.74 in18.8 mm
09:20 PM 67.7°F19.8°C 60.2°F15.7°C 77% 6.0 mph N9.7 kmh N 10.0 mph16.1 kmh 29.66 in1004.4 mb 0.00 in0.0 mm 0.00 in0.0 mm 0.74 in18.8 mm
09:25 PM 67.6°F19.8°C 60.1°F15.6°C 77% 5.0 mph N8.0 kmh N 14.0 mph22.5 kmh 29.66 in1004.4 mb 0.00 in0.0 mm 0.00 in0.0 mm 0.74 in18.8 mm
09:30 PM 67.5°F19.7°C 60.0°F15.6°C 77% 6.0 mph N9.7 kmh N 9.0 mph14.5 kmh 29.67 in1004.7 mb 0.00 in0.0 mm 0.00 in0.0 mm 0.74 in18.8 mm
09:35 PM 67.4°F19.7°C 60.3°F15.7°C 78% 5.0 mph N8.0 kmh N 14.0 mph22.5 kmh 29.66 in1004.4 mb 0.00 in0.0 mm 0.00 in0.0 mm 0.74 in18.8 mm
09:40 PM 67.2°F19.6°C 60.1°F15.6°C 78% 10.0 mph N16.1 kmh N 14.0 mph22.5 kmh 29.66 in1004.4 mb 0.00 in0.0 mm 0.00 in0.0 mm 0.74 in18.8 mm
09:45 PM 66.9°F19.4°C 60.2°F15.7°C 79% 14.0 mph N22.5 kmh N 15.0 mph24.1 kmh 29.66 in1004.4 mb 0.00 in0.0 mm 0.00 in0.0 mm 0.74 in18.8 mm
09:50 PM 66.6°F19.2°C 60.3°F15.7°C 80% 6.0 mph N9.7 kmh N 15.0 mph24.1 kmh 29.66 in1004.4 mb 0.00 in0.0 mm 0.00 in0.0 mm 0.74 in18.8 mm
09:55 PM 66.4°F19.1°C 60.1°F15.6°C 80% 9.0 mph N14.5 kmh N 18.0 mph29.0 kmh 29.66 in1004.4 mb 0.00 in0.0 mm 0.00 in0.0 mm 0.74 in18.8 mm
10:00 PM 66.1°F18.9°C 60.1°F15.6°C 81% 8.0 mph N12.9 kmh N 12.0 mph19.3 kmh 29.67 in1004.7 mb 0.00 in0.0 mm 0.00 in0.0 mm 0.74 in18.8 mm
10:05 PM 65.9°F18.8°C 60.3°F15.7°C 82% 11.0 mph N17.7 kmh N 21.0 mph33.8 kmh 29.67 in1004.7 mb 0.00 in0.0 mm 0.00 in0.0 mm 0.74 in18.8 mm
10:10 PM 65.8°F18.8°C 60.5°F15.8°C 83% 11.0 mph N17.7 kmh N 21.0 mph33.8 kmh 29.67 in1004.7 mb 0.00 in0.0 mm 0.00 in0.0 mm 0.74 in18.8 mm
10:15 PM 65.9°F18.8°C 60.6°F15.9°C 83% 8.0 mph N12.9 kmh N 11.0 mph17.7 kmh 29.67 in1004.7 mb 0.00 in0.0 mm 0.00 in0.0 mm 0.74 in18.8 mm
10:20 PM 66.0°F18.9°C 60.7°F15.9°C 83% 9.0 mph N14.5 kmh N 15.0 mph24.1 kmh 29.67 in1004.7 mb 0.00 in0.0 mm 0.00 in0.0 mm 0.74 in18.8 mm
10:25 PM 66.1°F18.9°C 60.8°F16.0°C 83% 7.0 mph N11.3 kmh N 15.0 mph24.1 kmh 29.67 in1004.7 mb 0.00 in0.0 mm 0.00 in0.0 mm 0.74 in18.8 mm
10:30 PM 66.1°F18.9°C 60.5°F15.8°C 82% 8.0 mph N12.9 kmh N 16.0 mph25.7 kmh 29.67 in1004.7 mb 0.00 in0.0 mm 0.00 in0.0 mm 0.74 in18.8 mm
10:35 PM 66.1°F18.9°C 60.5°F15.8°C 82% 7.0 mph N11.3 kmh N 16.0 mph25.7 kmh 29.67 in1004.7 mb 0.00 in0.0 mm 0.00 in0.0 mm 0.74 in18.8 mm
10:40 PM 65.9°F18.8°C 60.6°F15.9°C 83% 6.0 mph N9.7 kmh N 18.0 mph29.0 kmh 29.67 in1004.7 mb 0.00 in0.0 mm 0.00 in0.0 mm 0.74 in18.8 mm
10:45 PM 65.8°F18.8°C 60.5°F15.8°C 83% 13.0 mph N20.9 kmh N 15.0 mph24.1 kmh 29.66 in1004.4 mb 0.00 in0.0 mm 0.00 in0.0 mm 0.74 in18.8 mm
10:50 PM 65.7°F18.7°C 60.4°F15.8°C 83% 8.0 mph N12.9 kmh N 18.0 mph29.0 kmh 29.67 in1004.7 mb 0.00 in0.0 mm 0.00 in0.0 mm 0.74 in18.8 mm
10:55 PM 65.5°F18.6°C 60.5°F15.8°C 84% 6.0 mph N9.7 kmh N 18.0 mph29.0 kmh 29.67 in1004.7 mb 0.00 in0.0 mm 0.00 in0.0 mm 0.74 in18.8 mm
11:00 PM 65.3°F18.5°C 60.4°F15.8°C 84% 9.0 mph N14.5 kmh N 15.0 mph24.1 kmh 29.66 in1004.4 mb 0.00 in0.0 mm 0.00 in0.0 mm 0.74 in18.8 mm
11:05 PM 65.1°F18.4°C 60.2°F15.7°C 84% 8.0 mph N12.9 kmh N 15.0 mph24.1 kmh 29.66 in1004.4 mb 0.00 in0.0 mm 0.00 in0.0 mm 0.74 in18.8 mm
11:10 PM 65.0°F18.3°C 60.1°F15.6°C 84% 8.0 mph N12.9 kmh N 15.0 mph24.1 kmh 29.66 in1004.4 mb 0.00 in0.0 mm 0.00 in0.0 mm 0.74 in18.8 mm
11:15 PM 64.9°F18.3°C 60.0°F15.6°C 84% 13.0 mph N20.9 kmh N 13.0 mph20.9 kmh 29.66 in1004.4 mb 0.00 in0.0 mm 0.00 in0.0 mm 0.74 in18.8 mm
11:20 PM 64.9°F18.3°C 60.0°F15.6°C 84% 10.0 mph N16.1 kmh N 17.0 mph27.4 kmh 29.65 in1004.1 mb 0.00 in0.0 mm 0.00 in0.0 mm 0.74 in18.8 mm
11:25 PM 64.9°F18.3°C 60.0°F15.6°C 84% 9.0 mph N14.5 kmh N 17.0 mph27.4 kmh 29.65 in1004.1 mb 0.00 in0.0 mm 0.00 in0.0 mm 0.74 in18.8 mm
11:30 PM 65.0°F18.3°C 60.1°F15.6°C 84% 7.0 mph N11.3 kmh N 7.0 mph11.3 kmh 29.65 in1004.1 mb 0.00 in0.0 mm 0.00 in0.0 mm 0.74 in18.8 mm
11:35 PM 64.9°F18.3°C 59.6°F15.3°C 83% 7.0 mph N11.3 kmh N 16.0 mph25.7 kmh 29.65 in1004.1 mb 0.00 in0.0 mm 0.00 in0.0 mm 0.74 in18.8 mm
11:40 PM 64.8°F18.2°C 59.5°F15.3°C 83% 14.0 mph N22.5 kmh N 19.0 mph30.6 kmh 29.65 in1004.1 mb 0.00 in0.0 mm 0.00 in0.0 mm 0.74 in18.8 mm
11:45 PM 64.7°F18.2°C 59.8°F15.4°C 84% 12.0 mph N19.3 kmh N 14.0 mph22.5 kmh 29.65 in1004.1 mb 0.00 in0.0 mm 0.00 in0.0 mm 0.74 in18.8 mm
11:50 PM 64.5°F18.1°C 59.6°F15.3°C 84% 14.0 mph N22.5 kmh N 24.0 mph38.6 kmh 29.65 in1004.1 mb 0.00 in0.0 mm 0.00 in0.0 mm 0.74 in18.8 mm
11:55 PM 64.4°F18.0°C 59.5°F15.3°C 84% 7.0 mph N11.3 kmh N 24.0 mph38.6 kmh 29.64 in1003.7 mb 0.00 in0.0 mm 0.00 in0.0 mm 0.74 in18.8 mm